sensor_id;sensor_type;location;lat;lon;timestamp;P1;P2;P0
64138;PMS5003;50435;43.700;-79.318;2023-05-14T00:01:37;12;12;
64138;PMS5003;50435;43.700;-79.318;2023-05-14T00:04:05;11;10;
64138;PMS5003;50435;43.700;-79.318;2023-05-14T00:06:33;9;9;
64138;PMS5003;50435;43.700;-79.318;2023-05-14T00:09:00;9;9;
64138;PMS5003;50435;43.700;-79.318;2023-05-14T00:11:27;14;13;
64138;PMS5003;50435;43.700;-79.318;2023-05-14T00:13:55;14;13;
64138;PMS5003;50435;43.700;-79.318;2023-05-14T00:16:23;12;10;
64138;PMS5003;50435;43.700;-79.318;2023-05-14T00:18:50;17;14;
64138;PMS5003;50435;43.700;-79.318;2023-05-14T00:21:17;11;11;
64138;PMS5003;50435;43.700;-79.318;2023-05-14T00:23:45;11;11;
64138;PMS5003;50435;43.700;-79.318;2023-05-14T00:26:12;12;11;
64138;PMS5003;50435;43.700;-79.318;2023-05-14T00:28:39;11;11;
64138;PMS5003;50435;43.700;-79.318;2023-05-14T00:31:07;11;11;
64138;PMS5003;50435;43.700;-79.318;2023-05-14T00:33:34;15;13;
64138;PMS5003;50435;43.700;-79.318;2023-05-14T00:36:02;14;13;
64138;PMS5003;50435;43.700;-79.318;2023-05-14T00:38:29;12;12;
64138;PMS5003;50435;43.700;-79.318;2023-05-14T00:40:56;15;14;
64138;PMS5003;50435;43.700;-79.318;2023-05-14T00:43:24;13;13;
64138;PMS5003;50435;43.700;-79.318;2023-05-14T00:45:54;13;13;
64138;PMS5003;50435;43.700;-79.318;2023-05-14T00:48:22;15;14;
64138;PMS5003;50435;43.700;-79.318;2023-05-14T00:50:50;10;9;
64138;PMS5003;50435;43.700;-79.318;2023-05-14T00:53:18;17;14;
64138;PMS5003;50435;43.700;-79.318;2023-05-14T00:55:47;11;11;
64138;PMS5003;50435;43.700;-79.318;2023-05-14T00:58:15;14;13;
64138;PMS5003;50435;43.700;-79.318;2023-05-14T01:00:44;11;11;
64138;PMS5003;50435;43.700;-79.318;2023-05-14T01:03:11;15;13;
64138;PMS5003;50435;43.700;-79.318;2023-05-14T01:05:40;13;12;
64138;PMS5003;50435;43.700;-79.318;2023-05-14T01:08:21;12;11;
64138;PMS5003;50435;43.700;-79.318;2023-05-14T01:10:59;14;12;
64138;PMS5003;50435;43.700;-79.318;2023-05-14T01:13:32;11;11;
64138;PMS5003;50435;43.700;-79.318;2023-05-14T01:16:08;14;12;
64138;PMS5003;50435;43.700;-79.318;2023-05-14T01:18:39;10;10;
64138;PMS5003;50435;43.700;-79.318;2023-05-14T01:21:17;12;11;
64138;PMS5003;50435;43.700;-79.318;2023-05-14T01:23:50;9;9;
64138;PMS5003;50435;43.700;-79.318;2023-05-14T01:26:17;13;12;
64138;PMS5003;50435;43.700;-79.318;2023-05-14T01:28:45;13;11;
64138;PMS5003;50435;43.700;-79.318;2023-05-14T01:31:17;17;15;
64138;PMS5003;50435;43.700;-79.318;2023-05-14T01:33:48;14;14;
64138;PMS5003;50435;43.700;-79.318;2023-05-14T01:36:16;14;13;
64138;PMS5003;50435;43.700;-79.318;2023-05-14T01:38:44;14;12;
64138;PMS5003;50435;43.700;-79.318;2023-05-14T01:41:12;18;14;
64138;PMS5003;50435;43.700;-79.318;2023-05-14T01:43:41;10;9;
64138;PMS5003;50435;43.700;-79.318;2023-05-14T01:46:09;15;14;
64138;PMS5003;50435;43.700;-79.318;2023-05-14T01:48:37;13;12;
64138;PMS5003;50435;43.700;-79.318;2023-05-14T01:51:04;15;12;
64138;PMS5003;50435;43.700;-79.318;2023-05-14T01:53:32;14;12;
64138;PMS5003;50435;43.700;-79.318;2023-05-14T01:56:00;14;12;
64138;PMS5003;50435;43.700;-79.318;2023-05-14T01:58:27;11;11;
64138;PMS5003;50435;43.700;-79.318;2023-05-14T02:00:54;11;9;
64138;PMS5003;50435;43.700;-79.318;2023-05-14T02:03:22;12;11;
64138;PMS5003;50435;43.700;-79.318;2023-05-14T02:05:50;13;13;
64138;PMS5003;50435;43.700;-79.318;2023-05-14T02:08:18;14;9;
64138;PMS5003;50435;43.700;-79.318;2023-05-14T02:10:45;12;11;
64138;PMS5003;50435;43.700;-79.318;2023-05-14T02:13:13;13;12;
64138;PMS5003;50435;43.700;-79.318;2023-05-14T02:15:40;14;12;
64138;PMS5003;50435;43.700;-79.318;2023-05-14T02:18:08;17;16;
64138;PMS5003;50435;43.700;-79.318;2023-05-14T02:20:35;12;11;
64138;PMS5003;50435;43.700;-79.318;2023-05-14T02:23:03;11;11;
64138;PMS5003;50435;43.700;-79.318;2023-05-14T02:25:30;11;11;
64138;PMS5003;50435;43.700;-79.318;2023-05-14T02:27:57;11;11;
64138;PMS5003;50435;43.700;-79.318;2023-05-14T02:30:25;12;12;
64138;PMS5003;50435;43.700;-79.318;2023-05-14T02:32:52;12;12;
64138;PMS5003;50435;43.700;-79.318;2023-05-14T02:35:20;14;12;
64138;PMS5003;50435;43.700;-79.318;2023-05-14T02:37:48;14;13;
64138;PMS5003;50435;43.700;-79.318;2023-05-14T02:40:15;13;10;
64138;PMS5003;50435;43.700;-79.318;2023-05-14T02:42:43;18;18;
64138;PMS5003;50435;43.700;-79.318;2023-05-14T02:45:11;15;14;
64138;PMS5003;50435;43.700;-79.318;2023-05-14T02:47:38;17;14;
64138;PMS5003;50435;43.700;-79.318;2023-05-14T02:50:06;13;10;
64138;PMS5003;50435;43.700;-79.318;2023-05-14T02:52:34;14;12;
64138;PMS5003;50435;43.700;-79.318;2023-05-14T02:55:02;16;14;
64138;PMS5003;50435;43.700;-79.318;2023-05-14T02:57:31;16;15;
64138;PMS5003;50435;43.700;-79.318;2023-05-14T02:59:58;17;16;
64138;PMS5003;50435;43.700;-79.318;2023-05-14T03:02:26;16;14;
64138;PMS5003;50435;43.700;-79.318;2023-05-14T03:04:53;17;15;
64138;PMS5003;50435;43.700;-79.318;2023-05-14T03:07:21;16;15;
64138;PMS5003;50435;43.700;-79.318;2023-05-14T03:09:48;17;17;
64138;PMS5003;50435;43.700;-79.318;2023-05-14T03:12:16;15;13;
64138;PMS5003;50435;43.700;-79.318;2023-05-14T03:14:43;19;18;
64138;PMS5003;50435;43.700;-79.318;2023-05-14T03:17:10;16;15;
64138;PMS5003;50435;43.700;-79.318;2023-05-14T03:19:38;15;15;
64138;PMS5003;50435;43.700;-79.318;2023-05-14T03:22:05;13;12;
64138;PMS5003;50435;43.700;-79.318;2023-05-14T03:24:33;20;19;
64138;PMS5003;50435;43.700;-79.318;2023-05-14T03:27:00;18;15;
64138;PMS5003;50435;43.700;-79.318;2023-05-14T03:29:28;14;14;
64138;PMS5003;50435;43.700;-79.318;2023-05-14T03:31:55;15;13;
64138;PMS5003;50435;43.700;-79.318;2023-05-14T03:34:23;19;17;
64138;PMS5003;50435;43.700;-79.318;2023-05-14T03:36:51;14;14;
64138;PMS5003;50435;43.700;-79.318;2023-05-14T03:39:18;14;14;
64138;PMS5003;50435;43.700;-79.318;2023-05-14T03:41:46;14;14;
64138;PMS5003;50435;43.700;-79.318;2023-05-14T03:44:13;12;11;
64138;PMS5003;50435;43.700;-79.318;2023-05-14T03:46:41;17;17;
64138;PMS5003;50435;43.700;-79.318;2023-05-14T03:49:08;13;13;
64138;PMS5003;50435;43.700;-79.318;2023-05-14T03:51:36;15;12;
64138;PMS5003;50435;43.700;-79.318;2023-05-14T03:54:04;12;12;
64138;PMS5003;50435;43.700;-79.318;2023-05-14T03:56:32;13;12;
64138;PMS5003;50435;43.700;-79.318;2023-05-14T03:59:00;16;15;
64138;PMS5003;50435;43.700;-79.318;2023-05-14T04:01:27;18;16;
64138;PMS5003;50435;43.700;-79.318;2023-05-14T04:03:55;14;12;
64138;PMS5003;50435;43.700;-79.318;2023-05-14T04:06:22;14;13;
64138;PMS5003;50435;43.700;-79.318;2023-05-14T04:08:50;16;15;
64138;PMS5003;50435;43.700;-79.318;2023-05-14T04:11:18;17;16;
64138;PMS5003;50435;43.700;-79.318;2023-05-14T04:13:46;10;10;
64138;PMS5003;50435;43.700;-79.318;2023-05-14T04:16:13;14;12;
64138;PMS5003;50435;43.700;-79.318;2023-05-14T04:18:40;13;13;
64138;PMS5003;50435;43.700;-79.318;2023-05-14T04:21:08;14;14;
64138;PMS5003;50435;43.700;-79.318;2023-05-14T04:23:35;14;14;
64138;PMS5003;50435;43.700;-79.318;2023-05-14T04:26:03;17;15;
64138;PMS5003;50435;43.700;-79.318;2023-05-14T04:28:30;19;14;
64138;PMS5003;50435;43.700;-79.318;2023-05-14T04:30:58;13;12;
64138;PMS5003;50435;43.700;-79.318;2023-05-14T04:33:25;14;12;
64138;PMS5003;50435;43.700;-79.318;2023-05-14T04:35:53;14;13;
64138;PMS5003;50435;43.700;-79.318;2023-05-14T04:38:21;14;14;
64138;PMS5003;50435;43.700;-79.318;2023-05-14T04:40:49;15;15;
64138;PMS5003;50435;43.700;-79.318;2023-05-14T04:43:16;15;14;
64138;PMS5003;50435;43.700;-79.318;2023-05-14T04:45:44;15;12;
64138;PMS5003;50435;43.700;-79.318;2023-05-14T04:48:12;18;14;
64138;PMS5003;50435;43.700;-79.318;2023-05-14T04:50:39;16;12;
64138;PMS5003;50435;43.700;-79.318;2023-05-14T04:53:06;11;11;
64138;PMS5003;50435;43.700;-79.318;2023-05-14T04:55:34;15;15;
64138;PMS5003;50435;43.700;-79.318;2023-05-14T04:58:01;16;14;
64138;PMS5003;50435;43.700;-79.318;2023-05-14T05:00:29;13;11;
64138;PMS5003;50435;43.700;-79.318;2023-05-14T05:02:56;15;13;
64138;PMS5003;50435;43.700;-79.318;2023-05-14T05:05:24;13;13;
64138;PMS5003;50435;43.700;-79.318;2023-05-14T05:07:52;14;11;
64138;PMS5003;50435;43.700;-79.318;2023-05-14T05:10:20;13;10;
64138;PMS5003;50435;43.700;-79.318;2023-05-14T05:12:48;11;11;
64138;PMS5003;50435;43.700;-79.318;2023-05-14T05:15:15;10;9;
64138;PMS5003;50435;43.700;-79.318;2023-05-14T05:17:43;10;9;
64138;PMS5003;50435;43.700;-79.318;2023-05-14T05:20:11;15;11;
64138;PMS5003;50435;43.700;-79.318;2023-05-14T05:22:39;21;14;
64138;PMS5003;50435;43.700;-79.318;2023-05-14T05:25:07;13;10;
64138;PMS5003;50435;43.700;-79.318;2023-05-14T05:27:35;9;9;
64138;PMS5003;50435;43.700;-79.318;2023-05-14T05:30:03;11;11;
64138;PMS5003;50435;43.700;-79.318;2023-05-14T05:32:31;10;9;
64138;PMS5003;50435;43.700;-79.318;2023-05-14T05:34:58;12;12;
64138;PMS5003;50435;43.700;-79.318;2023-05-14T05:37:26;9;9;
64138;PMS5003;50435;43.700;-79.318;2023-05-14T05:39:53;11;10;
64138;PMS5003;50435;43.700;-79.318;2023-05-14T05:42:21;10;9;
64138;PMS5003;50435;43.700;-79.318;2023-05-14T05:44:49;10;10;
64138;PMS5003;50435;43.700;-79.318;2023-05-14T05:47:16;10;9;
64138;PMS5003;50435;43.700;-79.318;2023-05-14T05:49:43;17;13;
64138;PMS5003;50435;43.700;-79.318;2023-05-14T05:52:10;8;7;
64138;PMS5003;50435;43.700;-79.318;2023-05-14T05:54:38;12;12;
64138;PMS5003;50435;43.700;-79.318;2023-05-14T05:57:06;12;10;
64138;PMS5003;50435;43.700;-79.318;2023-05-14T05:59:34;12;10;
64138;PMS5003;50435;43.700;-79.318;2023-05-14T06:02:01;8;8;
64138;PMS5003;50435;43.700;-79.318;2023-05-14T06:04:29;13;11;
64138;PMS5003;50435;43.700;-79.318;2023-05-14T06:06:56;12;11;
64138;PMS5003;50435;43.700;-79.318;2023-05-14T06:09:24;13;10;
64138;PMS5003;50435;43.700;-79.318;2023-05-14T06:11:52;9;9;
64138;PMS5003;50435;43.700;-79.318;2023-05-14T06:14:20;11;9;
64138;PMS5003;50435;43.700;-79.318;2023-05-14T06:16:47;9;9;
64138;PMS5003;50435;43.700;-79.318;2023-05-14T06:19:15;6;6;
64138;PMS5003;50435;43.700;-79.318;2023-05-14T06:21:43;11;10;
64138;PMS5003;50435;43.700;-79.318;2023-05-14T06:24:10;8;8;
64138;PMS5003;50435;43.700;-79.318;2023-05-14T06:26:38;10;10;
64138;PMS5003;50435;43.700;-79.318;2023-05-14T06:29:06;10;10;
64138;PMS5003;50435;43.700;-79.318;2023-05-14T06:31:33;7;7;
64138;PMS5003;50435;43.700;-79.318;2023-05-14T06:34:01;9;9;
64138;PMS5003;50435;43.700;-79.318;2023-05-14T06:36:29;9;8;
64138;PMS5003;50435;43.700;-79.318;2023-05-14T06:38:56;7;5;
64138;PMS5003;50435;43.700;-79.318;2023-05-14T06:41:23;13;10;
64138;PMS5003;50435;43.700;-79.318;2023-05-14T06:43:51;11;10;
64138;PMS5003;50435;43.700;-79.318;2023-05-14T06:46:19;9;9;
64138;PMS5003;50435;43.700;-79.318;2023-05-14T06:48:47;8;8;
64138;PMS5003;50435;43.700;-79.318;2023-05-14T06:51:14;9;8;
64138;PMS5003;50435;43.700;-79.318;2023-05-14T06:53:42;10;8;
64138;PMS5003;50435;43.700;-79.318;2023-05-14T06:56:10;9;9;
64138;PMS5003;50435;43.700;-79.318;2023-05-14T06:58:38;6;6;
64138;PMS5003;50435;43.700;-79.318;2023-05-14T07:01:05;12;12;
64138;PMS5003;50435;43.700;-79.318;2023-05-14T07:03:33;11;10;
64138;PMS5003;50435;43.700;-79.318;2023-05-14T07:06:00;10;10;
64138;PMS5003;50435;43.700;-79.318;2023-05-14T07:08:28;11;9;
64138;PMS5003;50435;43.700;-79.318;2023-05-14T07:10:56;9;9;
64138;PMS5003;50435;43.700;-79.318;2023-05-14T07:13:25;8;8;
64138;PMS5003;50435;43.700;-79.318;2023-05-14T07:15:53;8;8;
64138;PMS5003;50435;43.700;-79.318;2023-05-14T07:18:21;9;8;
64138;PMS5003;50435;43.700;-79.318;2023-05-14T07:20:49;9;7;
64138;PMS5003;50435;43.700;-79.318;2023-05-14T07:23:17;8;8;
64138;PMS5003;50435;43.700;-79.318;2023-05-14T07:25:45;9;9;
64138;PMS5003;50435;43.700;-79.318;2023-05-14T07:28:12;7;7;
64138;PMS5003;50435;43.700;-79.318;2023-05-14T07:30:40;9;7;
64138;PMS5003;50435;43.700;-79.318;2023-05-14T07:33:08;8;7;
64138;PMS5003;50435;43.700;-79.318;2023-05-14T07:35:36;8;8;
64138;PMS5003;50435;43.700;-79.318;2023-05-14T07:38:03;6;6;
64138;PMS5003;50435;43.700;-79.318;2023-05-14T07:40:31;13;12;
64138;PMS5003;50435;43.700;-79.318;2023-05-14T07:42:58;9;9;
64138;PMS5003;50435;43.700;-79.318;2023-05-14T07:45:26;6;6;
64138;PMS5003;50435;43.700;-79.318;2023-05-14T07:47:53;8;8;
64138;PMS5003;50435;43.700;-79.318;2023-05-14T07:50:21;12;11;
64138;PMS5003;50435;43.700;-79.318;2023-05-14T07:52:48;9;8;
64138;PMS5003;50435;43.700;-79.318;2023-05-14T07:55:16;6;5;
64138;PMS5003;50435;43.700;-79.318;2023-05-14T07:57:44;10;9;
64138;PMS5003;50435;43.700;-79.318;2023-05-14T08:00:12;10;8;
64138;PMS5003;50435;43.700;-79.318;2023-05-14T08:02:40;9;7;
64138;PMS5003;50435;43.700;-79.318;2023-05-14T08:05:08;7;7;
64138;PMS5003;50435;43.700;-79.318;2023-05-14T08:07:36;6;6;
64138;PMS5003;50435;43.700;-79.318;2023-05-14T08:10:04;9;8;
64138;PMS5003;50435;43.700;-79.318;2023-05-14T08:12:32;7;6;
64138;PMS5003;50435;43.700;-79.318;2023-05-14T08:15:01;9;6;
64138;PMS5003;50435;43.700;-79.318;2023-05-14T08:17:29;8;8;
64138;PMS5003;50435;43.700;-79.318;2023-05-14T08:19:57;9;9;
64138;PMS5003;50435;43.700;-79.318;2023-05-14T08:22:25;7;7;
64138;PMS5003;50435;43.700;-79.318;2023-05-14T08:24:52;6;6;
64138;PMS5003;50435;43.700;-79.318;2023-05-14T08:27:19;9;8;
64138;PMS5003;50435;43.700;-79.318;2023-05-14T08:29:47;7;5;
64138;PMS5003;50435;43.700;-79.318;2023-05-14T08:32:14;5;5;
64138;PMS5003;50435;43.700;-79.318;2023-05-14T08:34:41;7;6;
64138;PMS5003;50435;43.700;-79.318;2023-05-14T08:37:09;6;6;
64138;PMS5003;50435;43.700;-79.318;2023-05-14T08:39:37;6;6;
64138;PMS5003;50435;43.700;-79.318;2023-05-14T08:42:05;8;8;
64138;PMS5003;50435;43.700;-79.318;2023-05-14T08:44:37;7;7;
64138;PMS5003;50435;43.700;-79.318;2023-05-14T08:47:12;7;7;
64138;PMS5003;50435;43.700;-79.318;2023-05-14T08:49:45;10;8;
64138;PMS5003;50435;43.700;-79.318;2023-05-14T08:52:15;8;6;
64138;PMS5003;50435;43.700;-79.318;2023-05-14T08:54:45;9;9;
64138;PMS5003;50435;43.700;-79.318;2023-05-14T08:57:16;7;6;
64138;PMS5003;50435;43.700;-79.318;2023-05-14T08:59:45;9;6;
64138;PMS5003;50435;43.700;-79.318;2023-05-14T09:02:13;6;6;
64138;PMS5003;50435;43.700;-79.318;2023-05-14T09:04:44;10;7;
64138;PMS5003;50435;43.700;-79.318;2023-05-14T09:07:13;6;6;
64138;PMS5003;50435;43.700;-79.318;2023-05-14T09:09:41;6;6;
64138;PMS5003;50435;43.700;-79.318;2023-05-14T09:12:09;6;6;
64138;PMS5003;50435;43.700;-79.318;2023-05-14T09:14:36;9;7;
64138;PMS5003;50435;43.700;-79.318;2023-05-14T09:17:04;6;6;
64138;PMS5003;50435;43.700;-79.318;2023-05-14T09:19:33;5;5;
64138;PMS5003;50435;43.700;-79.318;2023-05-14T09:22:00;4;4;
64138;PMS5003;50435;43.700;-79.318;2023-05-14T09:24:33;5;5;
64138;PMS5003;50435;43.700;-79.318;2023-05-14T09:27:01;5;5;
64138;PMS5003;50435;43.700;-79.318;2023-05-14T09:29:29;7;7;
64138;PMS5003;50435;43.700;-79.318;2023-05-14T09:31:57;7;7;
64138;PMS5003;50435;43.700;-79.318;2023-05-14T09:34:26;9;8;
64138;PMS5003;50435;43.700;-79.318;2023-05-14T09:36:55;8;8;
64138;PMS5003;50435;43.700;-79.318;2023-05-14T09:39:23;6;6;
64138;PMS5003;50435;43.700;-79.318;2023-05-14T09:41:51;7;6;
64138;PMS5003;50435;43.700;-79.318;2023-05-14T09:44:19;8;8;
64138;PMS5003;50435;43.700;-79.318;2023-05-14T09:46:47;6;4;
64138;PMS5003;50435;43.700;-79.318;2023-05-14T09:49:15;8;6;
64138;PMS5003;50435;43.700;-79.318;2023-05-14T09:51:42;7;7;
64138;PMS5003;50435;43.700;-79.318;2023-05-14T09:54:10;7;6;
64138;PMS5003;50435;43.700;-79.318;2023-05-14T09:56:38;6;6;
64138;PMS5003;50435;43.700;-79.318;2023-05-14T09:59:06;7;7;
64138;PMS5003;50435;43.700;-79.318;2023-05-14T10:01:33;6;6;
64138;PMS5003;50435;43.700;-79.318;2023-05-14T10:04:02;8;5;
64138;PMS5003;50435;43.700;-79.318;2023-05-14T10:06:32;7;6;
64138;PMS5003;50435;43.700;-79.318;2023-05-14T10:09:03;8;8;
64138;PMS5003;50435;43.700;-79.318;2023-05-14T10:11:36;8;6;
64138;PMS5003;50435;43.700;-79.318;2023-05-14T10:14:07;5;5;
64138;PMS5003;50435;43.700;-79.318;2023-05-14T10:16:39;6;4;
64138;PMS5003;50435;43.700;-79.318;2023-05-14T10:19:11;6;6;
64138;PMS5003;50435;43.700;-79.318;2023-05-14T10:21:43;6;6;
64138;PMS5003;50435;43.700;-79.318;2023-05-14T10:24:13;6;5;
64138;PMS5003;50435;43.700;-79.318;2023-05-14T10:26:41;5;5;
64138;PMS5003;50435;43.700;-79.318;2023-05-14T10:29:11;6;5;
64138;PMS5003;50435;43.700;-79.318;2023-05-14T10:31:44;5;5;
64138;PMS5003;50435;43.700;-79.318;2023-05-14T10:34:44;7;6;
64138;PMS5003;50435;43.700;-79.318;2023-05-14T10:37:12;10;7;
64138;PMS5003;50435;43.700;-79.318;2023-05-14T10:39:41;9;7;
64138;PMS5003;50435;43.700;-79.318;2023-05-14T10:42:10;6;6;
64138;PMS5003;50435;43.700;-79.318;2023-05-14T10:44:41;7;6;
64138;PMS5003;50435;43.700;-79.318;2023-05-14T10:47:15;6;6;
64138;PMS5003;50435;43.700;-79.318;2023-05-14T10:49:44;6;6;
64138;PMS5003;50435;43.700;-79.318;2023-05-14T10:52:12;9;8;
64138;PMS5003;50435;43.700;-79.318;2023-05-14T10:54:45;6;6;
64138;PMS5003;50435;43.700;-79.318;2023-05-14T10:57:14;6;6;
64138;PMS5003;50435;43.700;-79.318;2023-05-14T10:59:43;6;6;
64138;PMS5003;50435;43.700;-79.318;2023-05-14T11:02:30;6;6;
64138;PMS5003;50435;43.700;-79.318;2023-05-14T11:04:59;8;7;
64138;PMS5003;50435;43.700;-79.318;2023-05-14T11:07:29;6;6;
64138;PMS5003;50435;43.700;-79.318;2023-05-14T11:09:59;5;5;
64138;PMS5003;50435;43.700;-79.318;2023-05-14T11:12:28;5;5;
64138;PMS5003;50435;43.700;-79.318;2023-05-14T11:14:57;5;5;
64138;PMS5003;50435;43.700;-79.318;2023-05-14T11:17:26;6;5;
64138;PMS5003;50435;43.700;-79.318;2023-05-14T11:19:55;5;5;
64138;PMS5003;50435;43.700;-79.318;2023-05-14T11:22:23;6;6;
64138;PMS5003;50435;43.700;-79.318;2023-05-14T11:24:51;7;6;
64138;PMS5003;50435;43.700;-79.318;2023-05-14T11:27:20;5;5;
64138;PMS5003;50435;43.700;-79.318;2023-05-14T11:29:48;7;6;
64138;PMS5003;50435;43.700;-79.318;2023-05-14T11:32:16;5;5;
64138;PMS5003;50435;43.700;-79.318;2023-05-14T11:34:43;6;6;
64138;PMS5003;50435;43.700;-79.318;2023-05-14T11:37:12;4;3;
64138;PMS5003;50435;43.700;-79.318;2023-05-14T11:39:45;5;5;
64138;PMS5003;50435;43.700;-79.318;2023-05-14T11:42:14;2;2;
64138;PMS5003;50435;43.700;-79.318;2023-05-14T11:44:42;6;5;
64138;PMS5003;50435;43.700;-79.318;2023-05-14T11:47:10;5;4;
64138;PMS5003;50435;43.700;-79.318;2023-05-14T11:49:38;5;4;
64138;PMS5003;50435;43.700;-79.318;2023-05-14T11:52:05;4;4;
64138;PMS5003;50435;43.700;-79.318;2023-05-14T11:54:35;4;4;
64138;PMS5003;50435;43.700;-79.318;2023-05-14T11:57:06;4;4;
64138;PMS5003;50435;43.700;-79.318;2023-05-14T11:59:35;6;6;
64138;PMS5003;50435;43.700;-79.318;2023-05-14T12:02:03;3;3;
64138;PMS5003;50435;43.700;-79.318;2023-05-14T12:04:34;5;5;
64138;PMS5003;50435;43.700;-79.318;2023-05-14T12:07:06;5;4;
64138;PMS5003;50435;43.700;-79.318;2023-05-14T12:09:35;5;3;
64138;PMS5003;50435;43.700;-79.318;2023-05-14T12:12:07;3;3;
64138;PMS5003;50435;43.700;-79.318;2023-05-14T12:14:36;5;5;
64138;PMS5003;50435;43.700;-79.318;2023-05-14T12:17:10;5;4;
64138;PMS5003;50435;43.700;-79.318;2023-05-14T12:19:38;6;5;
64138;PMS5003;50435;43.700;-79.318;2023-05-14T12:22:07;3;3;
64138;PMS5003;50435;43.700;-79.318;2023-05-14T12:24:36;5;5;
64138;PMS5003;50435;43.700;-79.318;2023-05-14T12:27:04;4;4;
64138;PMS5003;50435;43.700;-79.318;2023-05-14T12:29:34;2;2;
64138;PMS5003;50435;43.700;-79.318;2023-05-14T12:32:02;4;4;
64138;PMS5003;50435;43.700;-79.318;2023-05-14T12:34:33;6;4;
64138;PMS5003;50435;43.700;-79.318;2023-05-14T12:37:00;4;4;
64138;PMS5003;50435;43.700;-79.318;2023-05-14T12:39:32;4;3;
64138;PMS5003;50435;43.700;-79.318;2023-05-14T12:42:00;3;3;
64138;PMS5003;50435;43.700;-79.318;2023-05-14T12:44:27;7;4;
64138;PMS5003;50435;43.700;-79.318;2023-05-14T12:46:54;5;4;
64138;PMS5003;50435;43.700;-79.318;2023-05-14T12:49:22;4;4;
64138;PMS5003;50435;43.700;-79.318;2023-05-14T12:51:50;5;5;
64138;PMS5003;50435;43.700;-79.318;2023-05-14T12:54:17;4;3;
64138;PMS5003;50435;43.700;-79.318;2023-05-14T12:56:46;4;4;
64138;PMS5003;50435;43.700;-79.318;2023-05-14T12:59:13;4;4;
64138;PMS5003;50435;43.700;-79.318;2023-05-14T13:01:41;3;3;
64138;PMS5003;50435;43.700;-79.318;2023-05-14T13:04:09;4;4;
64138;PMS5003;50435;43.700;-79.318;2023-05-14T13:06:37;4;4;
64138;PMS5003;50435;43.700;-79.318;2023-05-14T13:09:04;2;2;
64138;PMS5003;50435;43.700;-79.318;2023-05-14T13:11:32;2;2;
64138;PMS5003;50435;43.700;-79.318;2023-05-14T13:14:00;4;4;
64138;PMS5003;50435;43.700;-79.318;2023-05-14T13:16:28;5;3;
64138;PMS5003;50435;43.700;-79.318;2023-05-14T13:18:56;2;2;
64138;PMS5003;50435;43.700;-79.318;2023-05-14T13:21:23;3;3;
64138;PMS5003;50435;43.700;-79.318;2023-05-14T13:23:51;3;3;
64138;PMS5003;50435;43.700;-79.318;2023-05-14T13:26:18;3;3;
64138;PMS5003;50435;43.700;-79.318;2023-05-14T13:28:45;2;2;
64138;PMS5003;50435;43.700;-79.318;2023-05-14T13:31:13;3;3;
64138;PMS5003;50435;43.700;-79.318;2023-05-14T13:33:42;3;3;
64138;PMS5003;50435;43.700;-79.318;2023-05-14T13:36:11;2;2;
64138;PMS5003;50435;43.700;-79.318;2023-05-14T13:38:39;4;4;
64138;PMS5003;50435;43.700;-79.318;2023-05-14T13:41:07;3;3;
64138;PMS5003;50435;43.700;-79.318;2023-05-14T13:43:35;3;1;
64138;PMS5003;50435;43.700;-79.318;2023-05-14T13:46:03;2;2;
64138;PMS5003;50435;43.700;-79.318;2023-05-14T13:48:31;3;3;
64138;PMS5003;50435;43.700;-79.318;2023-05-14T13:50:59;1;1;
64138;PMS5003;50435;43.700;-79.318;2023-05-14T13:53:27;2;2;
64138;PMS5003;50435;43.700;-79.318;2023-05-14T13:55:55;3;1;
64138;PMS5003;50435;43.700;-79.318;2023-05-14T13:58:23;2;1;
64138;PMS5003;50435;43.700;-79.318;2023-05-14T14:00:50;2;1;
64138;PMS5003;50435;43.700;-79.318;2023-05-14T14:03:18;2;0;
64138;PMS5003;50435;43.700;-79.318;2023-05-14T14:05:46;1;1;
64138;PMS5003;50435;43.700;-79.318;2023-05-14T14:08:14;0;0;
64138;PMS5003;50435;43.700;-79.318;2023-05-14T14:10:42;3;3;
64138;PMS5003;50435;43.700;-79.318;2023-05-14T14:13:09;2;2;
64138;PMS5003;50435;43.700;-79.318;2023-05-14T14:15:37;2;2;
64138;PMS5003;50435;43.700;-79.318;2023-05-14T14:18:05;2;2;
64138;PMS5003;50435;43.700;-79.318;2023-05-14T14:20:33;2;2;
64138;PMS5003;50435;43.700;-79.318;2023-05-14T14:23:01;2;2;
64138;PMS5003;50435;43.700;-79.318;2023-05-14T14:25:29;4;3;
64138;PMS5003;50435;43.700;-79.318;2023-05-14T14:27:56;4;3;
64138;PMS5003;50435;43.700;-79.318;2023-05-14T14:30:24;2;2;
64138;PMS5003;50435;43.700;-79.318;2023-05-14T14:32:52;2;2;
64138;PMS5003;50435;43.700;-79.318;2023-05-14T14:35:20;2;2;
64138;PMS5003;50435;43.700;-79.318;2023-05-14T14:37:47;3;3;
64138;PMS5003;50435;43.700;-79.318;2023-05-14T14:40:15;7;3;
64138;PMS5003;50435;43.700;-79.318;2023-05-14T14:42:43;6;4;
64138;PMS5003;50435;43.700;-79.318;2023-05-14T14:45:11;5;4;
64138;PMS5003;50435;43.700;-79.318;2023-05-14T14:47:42;5;4;
64138;PMS5003;50435;43.700;-79.318;2023-05-14T14:50:10;2;2;
64138;PMS5003;50435;43.700;-79.318;2023-05-14T14:52:38;4;4;
64138;PMS5003;50435;43.700;-79.318;2023-05-14T14:55:06;4;4;
64138;PMS5003;50435;43.700;-79.318;2023-05-14T14:57:35;5;5;
64138;PMS5003;50435;43.700;-79.318;2023-05-14T15:00:03;5;5;
64138;PMS5003;50435;43.700;-79.318;2023-05-14T15:02:32;5;3;
64138;PMS5003;50435;43.700;-79.318;2023-05-14T15:04:59;2;2;
64138;PMS5003;50435;43.700;-79.318;2023-05-14T15:07:27;2;2;
64138;PMS5003;50435;43.700;-79.318;2023-05-14T15:09:55;3;3;
64138;PMS5003;50435;43.700;-79.318;2023-05-14T15:12:22;3;2;
64138;PMS5003;50435;43.700;-79.318;2023-05-14T15:14:50;4;3;
64138;PMS5003;50435;43.700;-79.318;2023-05-14T15:17:17;5;5;
64138;PMS5003;50435;43.700;-79.318;2023-05-14T15:19:45;4;2;
64138;PMS5003;50435;43.700;-79.318;2023-05-14T15:22:13;3;3;
64138;PMS5003;50435;43.700;-79.318;2023-05-14T15:24:40;0;0;
64138;PMS5003;50435;43.700;-79.318;2023-05-14T15:27:08;2;2;
64138;PMS5003;50435;43.700;-79.318;2023-05-14T15:29:36;2;2;
64138;PMS5003;50435;43.700;-79.318;2023-05-14T15:32:04;5;5;
64138;PMS5003;50435;43.700;-79.318;2023-05-14T15:34:32;4;2;
64138;PMS5003;50435;43.700;-79.318;2023-05-14T15:37:00;1;1;
64138;PMS5003;50435;43.700;-79.318;2023-05-14T15:39:27;3;3;
64138;PMS5003;50435;43.700;-79.318;2023-05-14T15:41:55;1;1;
64138;PMS5003;50435;43.700;-79.318;2023-05-14T15:44:23;2;2;
64138;PMS5003;50435;43.700;-79.318;2023-05-14T15:46:50;2;2;
64138;PMS5003;50435;43.700;-79.318;2023-05-14T15:49:18;4;2;
64138;PMS5003;50435;43.700;-79.318;2023-05-14T15:51:46;3;3;
64138;PMS5003;50435;43.700;-79.318;2023-05-14T15:54:14;2;2;
64138;PMS5003;50435;43.700;-79.318;2023-05-14T15:56:41;2;2;
64138;PMS5003;50435;43.700;-79.318;2023-05-14T15:59:09;1;1;
64138;PMS5003;50435;43.700;-79.318;2023-05-14T16:01:37;1;1;
64138;PMS5003;50435;43.700;-79.318;2023-05-14T16:04:04;5;3;
64138;PMS5003;50435;43.700;-79.318;2023-05-14T16:06:32;2;2;
64138;PMS5003;50435;43.700;-79.318;2023-05-14T16:09:00;2;2;
64138;PMS5003;50435;43.700;-79.318;2023-05-14T16:11:28;2;2;